Time;durP1;ratioP1;P1;durP2;ratioP2;P2;SDS_P1;SDS_P2;PMS_P1;PMS_P2;Temp;Humidity;BMP_temperature;BMP_pressure;BME280_temperature;BME280_humidity;BME280_pressure;Samples;Min_cycle;Max_cycle;Signal;HPM_P1;HPM_P2
2022/02/12 00:00:42;;;;;;;19.45;7.75;;;3.40;99.90;;;;;;5053379;28;20171;-78
2022/02/12 00:03:08;;;;;;;25.98;8.57;;;3.40;99.90;;;;;;5053361;28;20191;-78
2022/02/12 00:05:34;;;;;;;21.33;8.15;;;3.50;99.90;;;;;;5053373;28;20178;-77
2022/02/12 00:08:00;;;;;;;20.10;7.47;;;3.40;99.90;;;;;;5053595;28;20254;-78
2022/02/12 00:10:30;;;;;;;22.27;8.30;;;3.20;99.90;;;;;;5035759;28;20186;-82
2022/02/12 00:12:56;;;;;;;21.00;7.47;;;3.20;99.90;;;;;;5053387;28;20188;-78
2022/02/12 00:15:22;;;;;;;11.90;6.30;;;3.10;99.90;;;;;;5053460;28;20238;-81
2022/02/12 00:17:48;;;;;;;24.63;7.45;;;3.20;99.90;;;;;;5035703;28;20289;-77
2022/02/12 00:20:15;;;;;;;11.10;6.95;;;3.20;99.90;;;;;;5053304;28;20525;-77
2022/02/12 00:22:41;;;;;;;13.90;6.30;;;3.20;99.90;;;;;;5053138;28;20187;-77
2022/02/12 00:25:08;;;;;;;22.08;7.40;;;3.10;99.90;;;;;;5053856;28;20193;-77
2022/02/12 00:27:33;;;;;;;17.23;7.72;;;3.10;99.90;;;;;;5053302;28;20262;-77
2022/02/12 00:29:59;;;;;;;19.13;7.90;;;3.10;99.90;;;;;;5053737;28;20191;-76
2022/02/12 00:32:25;;;;;;;24.02;7.97;;;3.10;99.90;;;;;;5053836;28;20171;-77
2022/02/12 00:34:51;;;;;;;25.25;8.05;;;3.10;99.90;;;;;;5035926;28;20704;-77
2022/02/12 00:37:17;;;;;;;17.08;7.22;;;3.10;99.90;;;;;;5053466;28;20255;-78
2022/02/12 00:39:42;;;;;;;23.20;8.82;;;3.10;99.90;;;;;;5053363;28;20191;-77
2022/02/12 00:42:09;;;;;;;14.85;7.57;;;3.00;99.90;;;;;;5052772;28;20624;-77
2022/02/12 00:44:35;;;;;;;14.25;8.02;;;3.00;99.90;;;;;;5052807;28;20195;-77
2022/02/12 00:47:01;;;;;;;17.38;8.77;;;3.10;99.90;;;;;;5053428;28;20168;-78
2022/02/12 00:49:27;;;;;;;14.82;8.02;;;3.10;99.90;;;;;;5053336;28;20234;-77
2022/02/12 00:51:53;;;;;;;26.80;7.97;;;2.90;99.90;;;;;;5053389;28;20199;-76
2022/02/12 00:54:19;;;;;;;21.77;8.82;;;2.70;99.90;;;;;;5055391;28;20183;-82
2022/02/12 00:56:45;;;;;;;23.75;8.23;;;2.80;99.90;;;;;;5057345;28;20166;-88
2022/02/12 00:59:11;;;;;;;23.08;8.65;;;2.70;99.90;;;;;;5057177;28;20203;-77
2022/02/12 01:01:36;;;;;;;19.58;7.72;;;2.80;99.90;;;;;;5056958;28;20504;-76
2022/02/12 01:04:03;;;;;;;14.02;7.50;;;2.80;99.90;;;;;;5057311;28;20207;-76
2022/02/12 01:06:30;;;;;;;15.60;7.53;;;2.80;99.90;;;;;;5057457;28;20164;-76
2022/02/12 01:08:55;;;;;;;17.25;8.05;;;2.80;99.90;;;;;;5057305;28;20171;-76
2022/02/12 01:11:21;;;;;;;15.48;7.13;;;2.90;99.90;;;;;;5057180;28;20171;-78
2022/02/12 01:13:47;;;;;;;18.65;7.97;;;2.90;99.90;;;;;;5056885;28;20670;-77
2022/02/12 01:16:12;;;;;;;18.55;7.93;;;2.80;99.90;;;;;;5040539;28;20717;-76
2022/02/12 01:18:38;;;;;;;14.30;8.40;;;2.80;99.90;;;;;;5065161;28;20195;-76
2022/02/12 01:21:03;;;;;;;18.35;8.50;;;2.80;99.90;;;;;;5075894;28;20147;-79
2022/02/12 01:23:30;;;;;;;18.67;8.40;;;2.90;99.90;;;;;;5073420;28;20211;-76
2022/02/12 01:25:56;;;;;;;18.17;7.68;;;3.00;99.90;;;;;;5057125;28;20526;-76
2022/02/12 01:28:22;;;;;;;29.63;9.55;;;3.00;99.90;;;;;;5056557;28;20284;-78
2022/02/12 01:30:48;;;;;;;13.68;7.28;;;2.90;99.90;;;;;;5056892;28;20209;-77
2022/02/12 01:33:15;;;;;;;23.63;8.60;;;2.90;99.90;;;;;;5038803;28;20724;-77
2022/02/12 01:35:41;;;;;;;11.73;7.30;;;2.80;99.90;;;;;;5056674;28;20171;-82
2022/02/12 01:38:06;;;;;;;19.30;8.02;;;3.00;99.90;;;;;;5056652;28;20345;-77
2022/02/12 01:40:32;;;;;;;18.63;8.00;;;3.00;99.90;;;;;;5057547;28;20182;-84
2022/02/12 01:43:02;;;;;;;25.27;6.95;;;3.20;99.90;;;;;;5057139;28;20188;-77
2022/02/12 01:45:29;;;;;;;16.85;7.43;;;3.10;99.90;;;;;;5056746;28;20197;-77
2022/02/12 01:47:54;;;;;;;17.73;8.45;;;3.10;99.90;;;;;;5038805;28;20194;-78
2022/02/12 01:50:20;;;;;;;23.02;7.18;;;3.10;99.90;;;;;;5056663;28;20509;-87
2022/02/12 01:52:47;;;;;;;12.70;7.13;;;3.10;99.90;;;;;;5056887;28;20274;-77
2022/02/12 01:55:13;;;;;;;31.90;7.78;;;3.00;99.90;;;;;;5057334;28;20175;-77
2022/02/12 01:57:39;;;;;;;27.05;8.20;;;3.00;99.90;;;;;;5056192;28;20195;-82
2022/02/12 02:00:07;;;;;;;16.50;8.55;;;3.20;99.90;;;;;;5038304;28;20265;-79
2022/02/12 02:02:33;;;;;;;17.58;8.10;;;3.00;99.90;;;;;;5056180;28;20171;-77
2022/02/12 02:04:58;;;;;;;27.27;8.70;;;3.10;99.90;;;;;;5065066;28;20163;-78
2022/02/12 02:07:24;;;;;;;15.27;7.97;;;3.10;99.90;;;;;;5067272;28;20159;-77
2022/02/12 02:09:50;;;;;;;15.30;8.00;;;3.20;99.90;;;;;;5069296;28;20163;-77
2022/02/12 02:12:16;;;;;;;16.98;7.93;;;3.30;99.90;;;;;;5064974;28;20196;-79
2022/02/12 02:14:42;;;;;;;16.45;6.57;;;3.30;99.90;;;;;;5040723;28;20195;-79
2022/02/12 02:17:09;;;;;;;18.33;7.30;;;3.20;99.90;;;;;;5028596;28;20174;-79
2022/02/12 02:19:35;;;;;;;20.42;7.22;;;3.20;99.90;;;;;;5055946;28;20239;-76
2022/02/12 02:22:03;;;;;;;23.70;8.07;;;3.10;99.90;;;;;;5055789;28;20171;-76
2022/02/12 02:24:30;;;;;;;14.73;7.88;;;3.20;99.90;;;;;;5055080;28;20183;-76
2022/02/12 02:27:11;;;;;;;12.40;6.80;;;3.10;99.90;;;;;;5055698;28;20628;-77
2022/02/12 02:29:38;;;;;;;18.95;7.97;;;3.00;99.90;;;;;;5056144;28;20179;-87
2022/02/12 02:32:05;;;;;;;27.80;8.98;;;3.10;99.90;;;;;;5055585;28;20628;-78
2022/02/12 02:34:30;;;;;;;12.73;6.95;;;3.10;99.90;;;;;;5054940;28;21368;-80
2022/02/12 02:36:56;;;;;;;15.50;7.80;;;3.20;99.90;;;;;;5054379;28;20167;-76
2022/02/12 02:39:21;;;;;;;16.05;7.65;;;3.30;99.90;;;;;;5054206;28;20309;-75
2022/02/12 02:41:47;;;;;;;22.40;7.30;;;3.30;99.90;;;;;;5054249;28;20163;-76
2022/02/12 02:44:12;;;;;;;24.50;7.35;;;3.30;99.90;;;;;;5036543;28;20198;-78
2022/02/12 02:46:38;;;;;;;12.85;7.88;;;3.10;99.90;;;;;;5054329;28;20628;-76
2022/02/12 02:49:04;;;;;;;18.48;7.63;;;3.10;99.90;;;;;;5054526;28;20171;-88
2022/02/12 02:56:57;;;;;;;11.95;7.10;;;2.90;99.90;;;;;;5055154;28;20175;-77
2022/02/12 02:59:23;;;;;;;15.60;8.23;;;2.90;99.90;;;;;;5054763;28;20207;-77
2022/02/12 03:01:52;;;;;;;13.02;7.28;;;2.90;99.90;;;;;;5054893;28;20170;-76
2022/02/12 03:04:20;;;;;;;19.10;7.20;;;3.00;99.90;;;;;;5054616;28;20202;-77
2022/02/12 03:06:45;;;;;;;15.43;7.22;;;3.00;99.90;;;;;;5054879;28;20231;-76
2022/02/12 03:09:11;;;;;;;17.98;6.93;;;3.20;99.90;;;;;;5036835;28;20186;-80
2022/02/12 03:11:36;;;;;;;20.20;7.22;;;3.30;99.90;;;;;;5054091;28;20642;-76
2022/02/12 03:14:02;;;;;;;23.98;6.90;;;3.40;99.90;;;;;;5036092;28;20252;-81
2022/02/12 03:16:28;;;;;;;14.63;6.78;;;3.60;99.90;;;;;;5053882;28;20221;-76
2022/02/12 03:18:54;;;;;;;24.25;6.80;;;3.60;99.90;;;;;;5053890;28;20210;-76
2022/02/12 03:21:20;;;;;;;16.70;7.13;;;3.60;99.90;;;;;;5054684;28;20175;-76
2022/02/12 03:23:46;;;;;;;17.48;7.43;;;3.70;99.90;;;;;;5053883;28;20655;-76
2022/02/12 03:26:12;;;;;;;15.98;7.60;;;3.90;99.90;;;;;;5054115;28;20167;-76
2022/02/12 03:28:39;;;;;;;20.15;6.75;;;4.10;99.90;;;;;;5053634;28;20548;-78
2022/02/12 03:31:05;;;;;;;15.05;7.25;;;4.10;99.90;;;;;;5053552;28;20221;-76
2022/02/12 03:33:31;;;;;;;18.38;6.95;;;4.00;99.90;;;;;;5036011;28;20191;-77
2022/02/12 03:35:56;;;;;;;26.75;7.05;;;4.00;99.90;;;;;;5053402;28;20173;-76
2022/02/12 03:38:28;;;;;;;16.73;7.05;;;4.00;99.90;;;;;;5053233;28;20206;-76
2022/02/12 03:40:58;;;;;;;18.98;7.55;;;3.90;99.90;;;;;;5035453;28;20175;-77
2022/02/12 03:43:23;;;;;;;20.92;6.63;;;4.00;99.90;;;;;;5053369;28;20273;-86
2022/02/12 03:45:49;;;;;;;9.57;6.63;;;4.10;99.90;;;;;;5053233;28;20305;-79
2022/02/12 03:48:15;;;;;;;31.38;7.35;;;4.00;99.90;;;;;;5053782;28;20224;-77
2022/02/12 03:50:40;;;;;;;24.08;7.20;;;4.00;99.90;;;;;;5056428;28;20194;-76
2022/02/12 03:53:07;;;;;;;11.60;6.07;;;4.10;99.90;;;;;;5060910;28;20179;-75
2022/02/12 03:55:37;;;;;;;23.13;6.93;;;4.10;99.90;;;;;;5078575;28;20205;-77
2022/02/12 03:58:04;;;;;;;14.07;5.65;;;4.10;99.90;;;;;;5060624;28;20575;-77
2022/02/12 04:00:30;;;;;;;10.75;5.32;;;4.10;99.90;;;;;;5053982;28;20192;-77
2022/02/12 04:02:57;;;;;;;15.15;5.53;;;4.00;99.90;;;;;;5053052;28;20183;-77
2022/02/12 04:05:23;;;;;;;15.02;6.35;;;4.20;99.90;;;;;;5035732;28;20539;-86
2022/02/12 04:07:49;;;;;;;20.05;6.97;;;4.20;99.90;;;;;;5053187;28;20171;-77
2022/02/12 04:10:16;;;;;;;16.73;6.22;;;4.20;99.90;;;;;;5052943;28;20238;-77
2022/02/12 04:12:43;;;;;;;13.40;5.05;;;4.20;99.90;;;;;;5052991;28;20278;-77
2022/02/12 04:15:09;;;;;;;15.27;5.18;;;4.20;99.90;;;;;;5052825;28;20635;-77
2022/02/12 04:17:36;;;;;;;10.93;5.38;;;4.20;99.90;;;;;;5052722;28;20171;-77
2022/02/12 04:20:04;;;;;;;8.52;5.10;;;4.30;99.90;;;;;;5036055;28;20186;-76
2022/02/12 04:22:34;;;;;;;18.67;6.10;;;4.30;99.90;;;;;;5055446;28;20174;-76
2022/02/12 04:25:00;;;;;;;9.48;4.65;;;4.30;99.90;;;;;;5055413;28;20209;-77
2022/02/12 04:27:27;;;;;;;22.85;5.78;;;4.40;99.90;;;;;;5053173;28;20167;-78
2022/02/12 04:29:53;;;;;;;13.80;4.75;;;4.40;99.90;;;;;;5052728;28;20651;-77
2022/02/12 04:32:20;;;;;;;21.50;5.45;;;4.40;99.90;;;;;;5057329;28;20201;-76
2022/02/12 04:34:50;;;;;;;9.70;4.70;;;4.40;99.90;;;;;;5056142;28;20155;-76
2022/02/12 04:37:18;;;;;;;15.88;4.55;;;4.40;99.90;;;;;;5056679;28;20163;-77
2022/02/12 04:39:44;;;;;;;17.88;5.45;;;4.40;99.90;;;;;;5055984;28;20228;-77
2022/02/12 04:42:11;;;;;;;24.38;4.68;;;4.50;99.90;;;;;;5068623;28;20162;-77
2022/02/12 04:44:46;;;;;;;10.55;4.80;;;4.40;99.90;;;;;;5077235;28;20187;-77
2022/02/12 04:47:12;;;;;;;10.95;4.65;;;4.50;99.90;;;;;;5077292;28;20186;-78
2022/02/12 04:49:38;;;;;;;9.57;4.93;;;4.60;99.90;;;;;;5076528;28;20178;-77
2022/02/12 04:52:05;;;;;;;20.95;5.22;;;4.40;99.90;;;;;;5077170;28;20240;-76
2022/02/12 04:54:31;;;;;;;13.88;4.68;;;4.30;99.90;;;;;;5060036;28;20663;-76
2022/02/12 04:56:57;;;;;;;16.15;5.78;;;4.40;99.90;;;;;;5077270;28;20175;-76
2022/02/12 04:59:23;;;;;;;11.88;4.60;;;4.50;99.90;;;;;;5077347;28;20233;-77
2022/02/12 05:01:52;;;;;;;12.20;4.53;;;4.50;99.90;;;;;;5076955;28;20159;-77
2022/02/12 05:04:18;;;;;;;11.95;4.80;;;4.40;99.90;;;;;;5056797;28;20219;-78
2022/02/12 05:06:44;;;;;;;13.63;4.90;;;4.40;99.90;;;;;;5053263;28;20695;-79
2022/02/12 05:09:11;;;;;;;10.85;3.92;;;4.50;99.90;;;;;;5053483;28;20167;-76
2022/02/12 05:11:38;;;;;;;17.58;4.05;;;4.40;99.90;;;;;;5053983;28;20238;-77
2022/02/12 05:14:04;;;;;;;11.45;4.00;;;4.20;99.90;;;;;;5053582;28;20191;-77
2022/02/12 05:16:29;;;;;;;9.93;3.85;;;4.20;99.90;;;;;;5054123;28;20161;-77
2022/02/12 05:18:55;;;;;;;8.45;3.78;;;4.20;99.90;;;;;;5053376;28;20689;-77
2022/02/12 05:21:20;;;;;;;14.98;4.72;;;4.30;99.90;;;;;;5052896;28;20174;-77
2022/02/12 05:23:46;;;;;;;12.27;4.13;;;4.30;99.90;;;;;;5052450;28;20551;-81
2022/02/12 05:26:12;;;;;;;10.10;4.88;;;4.10;99.90;;;;;;5051794;28;20217;-76
2022/02/12 05:28:38;;;;;;;13.80;5.15;;;4.20;99.90;;;;;;5052028;28;20214;-77
2022/02/12 05:31:03;;;;;;;13.00;4.95;;;4.30;99.90;;;;;;5051748;28;20244;-77
2022/02/12 05:33:29;;;;;;;11.55;3.70;;;4.40;99.90;;;;;;5051528;28;20195;-78
2022/02/12 05:35:54;;;;;;;16.45;4.07;;;4.40;99.90;;;;;;5051496;28;20168;-81
2022/02/12 05:38:20;;;;;;;9.65;3.47;;;4.40;99.90;;;;;;5052272;28;20234;-76
2022/02/12 05:40:45;;;;;;;12.43;3.42;;;4.30;99.90;;;;;;5034844;28;20224;-77
2022/02/12 05:43:11;;;;;;;16.00;3.85;;;4.30;99.90;;;;;;5055125;28;20183;-77
2022/02/12 05:45:37;;;;;;;26.40;4.93;;;4.30;99.90;;;;;;5055233;28;20171;-76
2022/02/12 05:48:03;;;;;;;11.98;3.65;;;4.30;99.90;;;;;;5055141;28;20171;-76
2022/02/12 05:50:29;;;;;;;18.63;4.43;;;4.40;99.90;;;;;;5055418;28;20156;-76
2022/02/12 05:52:58;;;;;;;11.10;4.63;;;4.40;99.90;;;;;;5037506;28;20690;-77
2022/02/12 05:55:24;;;;;;;14.48;4.38;;;4.40;99.90;;;;;;5055274;28;20644;-84
2022/02/12 05:57:57;;;;;;;17.60;4.18;;;4.20;99.90;;;;;;5054972;28;20288;-76
2022/02/12 06:00:22;;;;;;;17.88;5.78;;;4.20;99.90;;;;;;5055721;28;20166;-82
2022/02/12 06:02:48;;;;;;;16.63;5.35;;;4.20;99.90;;;;;;5055682;28;20254;-77
2022/02/12 06:05:13;;;;;;;10.25;4.70;;;4.30;99.90;;;;;;5055539;28;20597;-77
2022/02/12 06:07:39;;;;;;;24.13;4.97;;;4.30;99.90;;;;;;5055824;28;20217;-77
2022/02/12 06:10:05;;;;;;;13.77;3.97;;;4.30;99.90;;;;;;5055640;28;20174;-77
2022/02/12 06:12:31;;;;;;;9.90;4.65;;;4.10;99.90;;;;;;5055934;28;20167;-76
2022/02/12 06:14:57;;;;;;;14.82;4.40;;;4.10;99.90;;;;;;5059470;28;20175;-78
2022/02/12 06:17:22;;;;;;;9.05;4.72;;;4.20;99.90;;;;;;5064171;28;20246;-76
2022/02/12 06:19:48;;;;;;;13.52;4.25;;;4.20;99.90;;;;;;5073543;28;20155;-77
2022/02/12 06:22:14;;;;;;;10.10;4.30;;;4.10;99.90;;;;;;5076448;28;20203;-77
2022/02/12 06:24:39;;;;;;;15.70;4.72;;;4.10;99.90;;;;;;5066988;28;20191;-78
2022/02/12 06:27:06;;;;;;;14.30;4.38;;;4.10;99.90;;;;;;5067967;28;20624;-77
2022/02/12 06:29:32;;;;;;;12.73;4.95;;;4.00;99.90;;;;;;5070457;28;20190;-77
2022/02/12 06:31:58;;;;;;;14.23;4.82;;;4.00;99.90;;;;;;5057008;28;20159;-78
2022/02/12 06:34:24;;;;;;;6.25;4.32;;;3.90;99.90;;;;;;5055577;28;20183;-77
2022/02/12 06:36:50;;;;;;;11.10;3.65;;;3.70;99.90;;;;;;5055394;28;20163;-76
2022/02/12 06:39:16;;;;;;;12.02;5.18;;;3.80;99.90;;;;;;5055184;28;20285;-86
2022/02/12 06:41:43;;;;;;;17.10;5.30;;;3.80;99.90;;;;;;5055094;28;20195;-77
2022/02/12 06:44:09;;;;;;;14.57;4.80;;;3.90;99.90;;;;;;5055038;28;20195;-76
2022/02/12 06:46:34;;;;;;;13.32;4.68;;;3.90;99.90;;;;;;5055283;28;20236;-87
2022/02/12 06:49:00;;;;;;;16.23;4.85;;;3.80;99.90;;;;;;5055194;28;20204;-77
2022/02/12 06:51:25;;;;;;;10.88;5.07;;;3.90;99.90;;;;;;5054800;28;20177;-76
2022/02/12 06:53:51;;;;;;;15.52;5.82;;;3.60;99.90;;;;;;5054579;28;20222;-76
2022/02/12 06:56:17;;;;;;;12.55;5.00;;;3.50;99.90;;;;;;5020927;28;20682;-81
2022/02/12 06:58:42;;;;;;;14.57;4.35;;;3.40;99.90;;;;;;5054503;28;20203;-76
2022/02/12 07:01:08;;;;;;;24.40;4.47;;;3.30;99.90;;;;;;5054783;28;20198;-77
2022/02/12 07:03:33;;;;;;;13.85;4.32;;;3.30;99.90;;;;;;5054547;28;20183;-76
2022/02/12 07:05:59;;;;;;;12.18;3.53;;;3.50;99.90;;;;;;5054515;28;20247;-76
2022/02/12 07:08:25;;;;;;;6.55;4.10;;;3.60;99.90;;;;;;5054380;28;20170;-76
2022/02/12 07:10:50;;;;;;;14.20;3.53;;;3.70;99.90;;;;;;5054590;28;20174;-78
2022/02/12 07:13:16;;;;;;;15.32;3.10;;;3.80;99.90;;;;;;5054211;28;20198;-77
2022/02/12 07:15:43;;;;;;;11.45;3.47;;;3.90;99.90;;;;;;5036096;28;20171;-76
2022/02/12 07:18:09;;;;;;;8.02;3.40;;;4.00;99.90;;;;;;5053730;28;20203;-76
2022/02/12 07:20:34;;;;;;;8.32;3.85;;;4.00;99.90;;;;;;5054338;28;20167;-77
2022/02/12 07:23:00;;;;;;;8.02;3.78;;;3.80;99.90;;;;;;5054527;28;20594;-86
2022/02/12 07:26:03;;;;;;;9.45;2.97;;;3.80;99.90;;;;;;5054584;28;20631;-85
2022/02/12 07:28:30;;;;;;;12.95;3.95;;;3.70;99.90;;;;;;5053704;28;20639;-77
2022/02/12 07:30:56;;;;;;;6.40;3.42;;;3.70;99.90;;;;;;5054235;28;20163;-78
2022/02/12 07:33:40;;;;;;;16.30;3.28;;;3.70;99.90;;;;;;5054107;28;20660;-78
2022/02/12 07:36:07;;;;;;;12.05;3.63;;;3.70;99.90;;;;;;5053997;28;20171;-80
2022/02/12 07:38:33;;;;;;;10.38;3.95;;;3.80;99.90;;;;;;5053903;28;20226;-79
2022/02/12 07:41:19;;;;;;;16.30;3.67;;;3.70;99.90;;;;;;5054010;28;20620;-78
2022/02/12 07:44:03;;;;;;;13.23;3.13;;;3.50;99.90;;;;;;5036130;28;20191;-77
2022/02/12 07:49:13;;;;;;;20.13;3.75;;;3.80;99.90;;;;;;5054187;28;20654;-76
2022/02/12 07:54:23;;;;;;;15.60;3.85;;;3.90;99.90;;;;;;5054101;28;20206;-76
2022/02/12 08:02:17;;;;;;;10.55;3.15;;;4.00;99.90;;;;;;5054118;28;20212;-80
2022/02/12 08:04:42;;;;;;;8.57;3.42;;;4.10;99.90;;;;;;5053470;28;20199;-77
2022/02/12 08:09:52;;;;;;;14.43;4.93;;;3.70;99.90;;;;;;5054373;28;20210;-85
2022/02/12 08:12:36;;;;;;;13.30;4.70;;;4.00;99.90;;;;;;5053990;28;20171;-76
2022/02/12 08:17:46;;;;;;;16.95;4.20;;;4.10;99.90;;;;;;5053710;28;20257;-76
2022/02/12 08:20:12;;;;;;;7.93;4.18;;;4.20;99.90;;;;;;5053738;28;20167;-77
2022/02/12 08:22:37;;;;;;;12.52;4.13;;;4.30;99.90;;;;;;5053420;28;20174;-77
2022/02/12 08:25:04;;;;;;;7.57;3.63;;;4.40;99.90;;;;;;5053663;28;20167;-80
2022/02/12 08:27:30;;;;;;;12.98;3.72;;;4.50;99.90;;;;;;5053418;28;20183;-77
2022/02/12 08:29:56;;;;;;;15.48;3.58;;;4.30;99.90;;;;;;5035570;28;20716;-78
2022/02/12 08:35:11;;;;;;;9.80;4.45;;;4.20;99.90;;;;;;5052991;28;20642;-77
2022/02/12 08:37:42;;;;;;;10.13;3.97;;;4.40;99.90;;;;;;5053276;28;20159;-83
2022/02/12 08:40:09;;;;;;;9.40;3.47;;;4.30;99.90;;;;;;5053338;28;20220;-77
2022/02/12 08:42:35;;;;;;;11.38;3.78;;;4.20;99.90;;;;;;5055720;28;20180;-77
2022/02/12 08:45:03;;;;;;;16.88;4.60;;;4.30;99.90;;;;;;5051935;28;20158;-78
2022/02/12 08:47:29;;;;;;;24.02;4.78;;;4.50;99.90;;;;;;5077278;28;20167;-78
2022/02/12 08:49:54;;;;;;;14.77;4.65;;;4.60;99.90;;;;;;5056778;28;20186;-86
2022/02/12 08:52:20;;;;;;;8.02;3.00;;;4.70;99.90;;;;;;5053588;28;20171;-80
2022/02/12 08:54:45;;;;;;;15.77;4.32;;;4.40;99.90;;;;;;5053446;28;20221;-86
2022/02/12 08:57:11;;;;;;;21.13;4.43;;;4.50;99.90;;;;;;5053036;28;20644;-85
2022/02/12 08:59:36;;;;;;;11.13;4.45;;;4.70;99.90;;;;;;5052881;28;20509;-77
2022/02/12 09:02:02;;;;;;;6.35;3.58;;;4.90;99.90;;;;;;5052807;28;20167;-77
2022/02/12 09:04:29;;;;;;;22.90;5.50;;;5.10;99.90;;;;;;5053588;28;20202;-88
2022/02/12 09:06:54;;;;;;;8.40;3.22;;;5.10;99.90;;;;;;5052477;28;20162;-85
2022/02/12 09:09:20;;;;;;;13.82;3.83;;;5.30;99.90;;;;;;5052124;28;20250;-77
2022/02/12 09:11:46;;;;;;;9.82;2.90;;;5.40;99.90;;;;;;5052028;28;20505;-78
2022/02/12 09:14:12;;;;;;;18.17;3.83;;;5.30;99.90;;;;;;5053344;28;20190;-77
2022/02/12 09:16:40;;;;;;;14.52;3.10;;;5.20;99.90;;;;;;5056732;28;20246;-76
2022/02/12 09:19:07;;;;;;;17.83;3.72;;;4.90;99.90;;;;;;5055778;28;20269;-76
2022/02/12 09:21:33;;;;;;;13.43;3.50;;;4.90;99.90;;;;;;5056077;28;20209;-81
2022/02/12 09:23:59;;;;;;;9.88;2.92;;;5.00;99.90;;;;;;5038261;28;20195;-78
2022/02/12 09:26:33;;;;;;;7.30;3.08;;;5.10;99.90;;;;;;5056149;28;20642;-78
2022/02/12 09:29:01;;;;;;;10.60;3.45;;;5.10;99.90;;;;;;5039195;28;20218;-88
2022/02/12 09:31:27;;;;;;;13.38;3.72;;;5.30;99.90;;;;;;5057056;28;20250;-80
2022/02/12 09:33:53;;;;;;;8.00;3.13;;;5.30;99.90;;;;;;5056537;28;20275;-77
2022/02/12 09:36:19;;;;;;;8.55;3.38;;;5.50;99.90;;;;;;5056569;28;20159;-88
2022/02/12 09:38:45;;;;;;;14.20;3.78;;;5.60;99.90;;;;;;5055863;28;20210;-87
2022/02/12 09:41:13;;;;;;;7.57;3.50;;;5.80;99.90;;;;;;5055829;28;20159;-85
2022/02/12 09:43:41;;;;;;;13.00;3.08;;;5.90;99.90;;;;;;5055996;28;20199;-79
2022/02/12 09:46:06;;;;;;;7.15;3.85;;;5.90;99.90;;;;;;5056428;28;20198;-77
2022/02/12 09:48:34;;;;;;;21.80;3.28;;;5.90;99.90;;;;;;5038627;28;20547;-90
2022/02/12 09:51:00;;;;;;;17.38;3.10;;;5.90;99.90;;;;;;5057002;28;20250;-80
2022/02/12 09:53:28;;;;;;;12.10;2.90;;;6.00;99.90;;;;;;5038540;28;20191;-79
2022/02/12 09:55:54;;;;;;;10.07;3.13;;;6.10;99.90;;;;;;5058157;28;20171;-77
2022/02/12 09:58:19;;;;;;;5.78;2.83;;;6.10;99.90;;;;;;5055031;28;20210;-78
2022/02/12 10:00:45;;;;;;;10.30;2.45;;;6.00;99.90;;;;;;5055526;28;20210;-83
2022/02/12 10:03:11;;;;;;;5.05;2.17;;;6.00;99.90;;;;;;5055432;28;20219;-81
2022/02/12 10:05:38;;;;;;;5.72;2.72;;;6.10;99.90;;;;;;5037240;28;20266;-78
2022/02/12 10:08:09;;;;;;;6.55;2.55;;;6.10;99.90;;;;;;5054987;28;20167;-81
2022/02/12 10:10:36;;;;;;;8.23;2.28;;;6.20;99.90;;;;;;5055047;28;20213;-77
2022/02/12 10:13:08;;;;;;;4.22;2.13;;;6.20;99.90;;;;;;5054642;28;20663;-79
2022/02/12 10:15:34;;;;;;;8.48;3.10;;;6.40;99.90;;;;;;5054782;28;20171;-81
2022/02/12 10:18:01;;;;;;;10.63;2.63;;;6.40;99.90;;;;;;5055081;28;20183;-82
2022/02/12 10:20:35;;;;;;;10.13;2.95;;;6.40;99.90;;;;;;5056463;28;20258;-79
2022/02/12 10:23:02;;;;;;;6.25;2.63;;;6.40;99.90;;;;;;5062913;28;20192;-77
2022/02/12 10:25:27;;;;;;;6.70;2.28;;;6.50;99.90;;;;;;5055982;28;20612;-78
2022/02/12 10:27:54;;;;;;;5.50;2.28;;;6.60;99.90;;;;;;5054146;28;20266;-83
2022/02/12 10:30:26;;;;;;;2.45;1.98;;;6.70;99.90;;;;;;5063540;28;20155;-80
2022/02/12 10:33:00;;;;;;;4.82;2.45;;;6.70;99.90;;;;;;5074864;28;20187;-83
2022/02/12 10:35:26;;;;;;;6.35;2.35;;;6.70;99.90;;;;;;5057185;28;20886;-82
2022/02/12 10:38:00;;;;;;;10.40;3.53;;;6.70;99.90;;;;;;5068150;28;20194;-81
2022/02/12 10:40:26;;;;;;;13.35;2.58;;;6.70;99.90;;;;;;5079222;28;20181;-76
2022/02/12 10:42:53;;;;;;;8.73;2.03;;;6.80;99.90;;;;;;5084717;28;20257;-78
2022/02/12 10:45:19;;;;;;;9.57;3.38;;;6.80;99.90;;;;;;5078398;28;20194;-77
2022/02/12 10:47:49;;;;;;;14.05;3.00;;;6.90;99.90;;;;;;5064014;28;20228;-77
2022/02/12 10:50:16;;;;;;;8.90;3.13;;;6.80;99.90;;;;;;5054117;28;20636;-76
2022/02/12 10:52:56;;;;;;;13.32;3.22;;;6.90;99.90;;;;;;5053558;28;20186;-77
2022/02/12 10:55:29;;;;;;;7.07;3.03;;;6.90;99.90;;;;;;5020274;28;20167;-78
2022/02/12 10:57:59;;;;;;;10.43;2.88;;;6.80;99.90;;;;;;5048697;28;20209;-80
2022/02/12 11:00:26;;;;;;;9.68;3.38;;;6.80;99.90;;;;;;5074154;28;20197;-78
2022/02/12 11:02:54;;;;;;;10.70;3.33;;;6.70;99.90;;;;;;5068312;28;20648;-83
2022/02/12 11:05:21;;;;;;;6.75;2.63;;;6.90;99.90;;;;;;5066454;28;20189;-79
2022/02/12 11:07:51;;;;;;;13.10;3.00;;;7.10;99.90;;;;;;5073095;28;20163;-79
2022/02/12 11:10:17;;;;;;;11.95;3.85;;;6.90;99.90;;;;;;5071708;28;20183;-79
2022/02/12 11:12:43;;;;;;;8.95;3.55;;;6.90;99.90;;;;;;5058351;28;20663;-85
2022/02/12 11:15:10;;;;;;;7.60;3.60;;;7.00;99.90;;;;;;5074249;28;20174;-85
2022/02/12 11:17:37;;;;;;;11.80;3.05;;;7.00;99.90;;;;;;5074055;28;20526;-77
2022/02/12 11:20:05;;;;;;;7.20;2.92;;;7.10;99.90;;;;;;5074364;28;20192;-85
2022/02/12 11:22:31;;;;;;;10.43;3.92;;;7.20;99.90;;;;;;5070773;28;20219;-79
2022/02/12 11:24:57;;;;;;;9.05;2.90;;;7.20;99.90;;;;;;5036136;28;20171;-78
2022/02/12 11:27:30;;;;;;;12.48;3.30;;;7.20;99.90;;;;;;5036361;28;20628;-78
2022/02/12 11:30:14;;;;;;;5.38;2.88;;;7.20;99.90;;;;;;5053260;28;20250;-83
2022/02/12 11:32:44;;;;;;;19.00;3.67;;;7.20;99.90;;;;;;5052770;28;20167;-82
2022/02/12 11:35:10;;;;;;;16.98;4.57;;;7.30;99.90;;;;;;5053380;28;20699;-85
2022/02/12 11:37:40;;;;;;;14.95;4.47;;;7.40;99.90;;;;;;5053525;28;20242;-83
2022/02/12 11:40:28;;;;;;;18.85;3.40;;;7.40;99.90;;;;;;5062577;28;20182;-78
2022/02/12 11:43:06;;;;;;;17.77;3.92;;;7.50;99.90;;;;;;5072978;28;20186;-78
2022/02/12 11:45:36;;;;;;;4.38;3.28;;;7.60;99.90;;;;;;5073113;28;20253;-79
2022/02/12 11:48:26;;;;;;;14.35;3.58;;;7.70;99.90;;;;;;5073289;28;20652;-85
2022/02/12 11:51:08;;;;;;;9.05;2.92;;;7.90;99.90;;;;;;5073239;28;20190;-78
2022/02/12 11:53:44;;;;;;;16.40;3.53;;;7.80;99.90;;;;;;5073489;28;20224;-77
2022/02/12 11:56:19;;;;;;;13.52;2.75;;;7.70;99.90;;;;;;5054988;28;20267;-77
2022/02/12 11:58:47;;;;;;;7.40;3.38;;;7.70;99.90;;;;;;5073025;28;20202;-80
2022/02/12 12:01:21;;;;;;;8.88;2.50;;;7.60;99.90;;;;;;5072729;28;20228;-77
2022/02/12 12:04:11;;;;;;;5.82;2.50;;;7.70;99.90;;;;;;5054737;28;20197;-77
2022/02/12 12:07:05;;;;;;;9.45;3.17;;;7.70;99.90;;;;;;5073044;28;20197;-78
2022/02/12 12:09:33;;;;;;;12.85;2.70;;;7.70;99.90;;;;;;5072702;28;20167;-77
2022/02/12 12:12:11;;;;;;;10.73;2.40;;;7.60;99.90;;;;;;5072916;28;20677;-76
2022/02/12 12:14:38;;;;;;;6.55;2.65;;;7.60;99.90;;;;;;5072716;28;20241;-77
2022/02/12 12:17:04;;;;;;;10.88;2.83;;;7.70;99.90;;;;;;5072523;28;20241;-77
2022/02/12 12:19:39;;;;;;;8.23;2.47;;;7.80;99.90;;;;;;5072607;28;20210;-76
2022/02/12 12:22:10;;;;;;;7.05;2.65;;;7.70;99.90;;;;;;5073379;28;20166;-78
2022/02/12 12:24:37;;;;;;;10.63;2.78;;;7.80;99.90;;;;;;5073016;28;20292;-89
2022/02/12 12:27:03;;;;;;;6.95;2.45;;;7.80;99.90;;;;;;5072862;28;20167;-78
2022/02/12 12:32:19;;;;;;;10.65;2.05;;;8.10;99.90;;;;;;5072152;28;20239;-76
2022/02/12 12:34:54;;;;;;;3.35;1.80;;;8.00;99.90;;;;;;5054580;28;20242;-76
2022/02/12 12:37:21;;;;;;;10.40;2.70;;;7.90;99.90;;;;;;5054591;28;20230;-76
2022/02/12 12:39:47;;;;;;;2.38;1.75;;;7.90;99.90;;;;;;5073034;28;20244;-77
2022/02/12 12:42:18;;;;;;;7.40;2.03;;;7.90;99.90;;;;;;5058719;28;20166;-81
2022/02/12 12:44:56;;;;;;;19.00;1.77;;;7.80;99.90;;;;;;5055440;28;20256;-80
2022/02/12 12:47:21;;;;;;;3.85;2.08;;;7.90;99.90;;;;;;5073763;28;20170;-78
2022/02/12 12:49:51;;;;;;;10.40;3.05;;;8.00;99.90;;;;;;5074160;28;20277;-83
2022/02/12 12:52:23;;;;;;;3.28;1.88;;;8.00;99.90;;;;;;5080944;28;20174;-80
2022/02/12 12:54:55;;;;;;;6.07;1.88;;;8.10;99.90;;;;;;5078523;28;20645;-87
2022/02/12 12:57:27;;;;;;;8.10;1.77;;;8.10;99.90;;;;;;5078567;28;20245;-76
2022/02/12 12:59:57;;;;;;;4.57;1.85;;;8.10;99.90;;;;;;5077348;28;20206;-79
2022/02/12 13:02:24;;;;;;;11.07;1.90;;;8.00;99.90;;;;;;5077396;28;20167;-86
2022/02/12 13:04:55;;;;;;;3.17;1.52;;;8.00;99.90;;;;;;5076916;28;20202;-84
2022/02/12 13:07:27;;;;;;;5.55;1.95;;;7.90;99.90;;;;;;5077116;28;20257;-88
2022/02/12 13:09:58;;;;;;;6.70;1.92;;;7.80;99.90;;;;;;5076958;28;20167;-88
2022/02/12 13:12:27;;;;;;;6.25;2.67;;;7.90;99.90;;;;;;5078751;28;20247;-80
2022/02/12 13:14:54;;;;;;;7.50;2.65;;;7.90;99.90;;;;;;5078123;28;20166;-80
2022/02/12 13:17:20;;;;;;;4.22;1.98;;;7.90;99.90;;;;;;5077879;28;20163;-75
2022/02/12 13:19:47;;;;;;;6.32;1.85;;;8.00;99.90;;;;;;5077246;28;20234;-83